sensor_id;sensor_type;location;lat;lon;timestamp;P1;durP1;ratioP1;P2;durP2;ratioP2
71303;SDS011;59091;47.446;19.148;2023-08-21T00:01:28;24.52;;;15.68;;
71303;SDS011;59091;47.446;19.148;2023-08-21T00:03:53;19.48;;;15.80;;
71303;SDS011;59091;47.446;19.148;2023-08-21T00:06:18;21.20;;;15.73;;
71303;SDS011;59091;47.446;19.148;2023-08-21T00:08:44;19.88;;;15.77;;
71303;SDS011;59091;47.446;19.148;2023-08-21T00:11:09;17.05;;;14.85;;
71303;SDS011;59091;47.446;19.148;2023-08-21T00:13:35;19.95;;;16.02;;
71303;SDS011;59091;47.446;19.148;2023-08-21T00:16:00;19.20;;;15.32;;
71303;SDS011;59091;47.446;19.148;2023-08-21T00:18:26;20.90;;;15.13;;
71303;SDS011;59091;47.446;19.148;2023-08-21T00:20:51;19.10;;;14.60;;
71303;SDS011;59091;47.446;19.148;2023-08-21T00:23:17;19.92;;;15.32;;
71303;SDS011;59091;47.446;19.148;2023-08-21T00:25:45;18.40;;;15.43;;
71303;SDS011;59091;47.446;19.148;2023-08-21T00:28:11;18.45;;;14.98;;
71303;SDS011;59091;47.446;19.148;2023-08-21T00:30:37;20.50;;;15.38;;
71303;SDS011;59091;47.446;19.148;2023-08-21T00:33:02;20.50;;;16.05;;
71303;SDS011;59091;47.446;19.148;2023-08-21T00:35:28;24.08;;;14.95;;
71303;SDS011;59091;47.446;19.148;2023-08-21T00:37:53;18.63;;;15.60;;
71303;SDS011;59091;47.446;19.148;2023-08-21T00:40:19;19.85;;;15.55;;
71303;SDS011;59091;47.446;19.148;2023-08-21T00:42:44;19.58;;;14.75;;
71303;SDS011;59091;47.446;19.148;2023-08-21T00:45:09;15.27;;;13.52;;
71303;SDS011;59091;47.446;19.148;2023-08-21T00:47:36;15.15;;;10.68;;
71303;SDS011;59091;47.446;19.148;2023-08-21T00:50:02;18.48;;;10.70;;
71303;SDS011;59091;47.446;19.148;2023-08-21T00:52:28;14.75;;;10.40;;
71303;SDS011;59091;47.446;19.148;2023-08-21T00:54:54;11.20;;;10.05;;
71303;SDS011;59091;47.446;19.148;2023-08-21T00:57:20;10.68;;;9.57;;
71303;SDS011;59091;47.446;19.148;2023-08-21T00:59:46;17.20;;;9.95;;
71303;SDS011;59091;47.446;19.148;2023-08-21T01:02:12;13.57;;;9.70;;
71303;SDS011;59091;47.446;19.148;2023-08-21T01:04:38;10.90;;;9.45;;
71303;SDS011;59091;47.446;19.148;2023-08-21T01:07:03;12.90;;;9.73;;
71303;SDS011;59091;47.446;19.148;2023-08-21T01:09:58;10.68;;;9.35;;
71303;SDS011;59091;47.446;19.148;2023-08-21T01:15:11;11.35;;;9.65;;
71303;SDS011;59091;47.446;19.148;2023-08-21T01:17:38;10.50;;;9.10;;
71303;SDS011;59091;47.446;19.148;2023-08-21T01:20:06;10.10;;;9.10;;
71303;SDS011;59091;47.446;19.148;2023-08-21T01:22:36;12.80;;;9.90;;
71303;SDS011;59091;47.446;19.148;2023-08-21T01:25:06;12.32;;;9.30;;
71303;SDS011;59091;47.446;19.148;2023-08-21T01:27:32;11.20;;;10.10;;
71303;SDS011;59091;47.446;19.148;2023-08-21T01:29:59;10.30;;;9.27;;
71303;SDS011;59091;47.446;19.148;2023-08-21T01:35:12;10.55;;;9.45;;
71303;SDS011;59091;47.446;19.148;2023-08-21T01:37:38;10.98;;;9.75;;
71303;SDS011;59091;47.446;19.148;2023-08-21T01:40:05;12.07;;;10.70;;
71303;SDS011;59091;47.446;19.148;2023-08-21T01:42:31;13.27;;;9.60;;
71303;SDS011;59091;47.446;19.148;2023-08-21T01:44:56;10.85;;;9.68;;
71303;SDS011;59091;47.446;19.148;2023-08-21T01:47:22;11.43;;;9.85;;
71303;SDS011;59091;47.446;19.148;2023-08-21T01:49:47;12.25;;;10.52;;
71303;SDS011;59091;47.446;19.148;2023-08-21T01:52:13;11.50;;;9.27;;
71303;SDS011;59091;47.446;19.148;2023-08-21T01:54:38;12.02;;;10.00;;
71303;SDS011;59091;47.446;19.148;2023-08-21T01:57:04;12.45;;;10.38;;
71303;SDS011;59091;47.446;19.148;2023-08-21T01:59:30;10.98;;;9.88;;
71303;SDS011;59091;47.446;19.148;2023-08-21T02:01:55;10.52;;;9.50;;
71303;SDS011;59091;47.446;19.148;2023-08-21T02:04:21;12.43;;;9.82;;
71303;SDS011;59091;47.446;19.148;2023-08-21T02:06:46;10.93;;;9.63;;
71303;SDS011;59091;47.446;19.148;2023-08-21T02:09:11;11.25;;;9.98;;
71303;SDS011;59091;47.446;19.148;2023-08-21T02:11:37;12.88;;;10.13;;
71303;SDS011;59091;47.446;19.148;2023-08-21T02:14:02;11.48;;;9.93;;
71303;SDS011;59091;47.446;19.148;2023-08-21T02:16:28;12.13;;;10.32;;
71303;SDS011;59091;47.446;19.148;2023-08-21T02:18:54;13.73;;;9.77;;
71303;SDS011;59091;47.446;19.148;2023-08-21T02:21:20;10.73;;;9.60;;
71303;SDS011;59091;47.446;19.148;2023-08-21T02:23:45;11.45;;;9.52;;
71303;SDS011;59091;47.446;19.148;2023-08-21T02:26:11;11.35;;;9.98;;
71303;SDS011;59091;47.446;19.148;2023-08-21T02:28:36;12.60;;;10.05;;
71303;SDS011;59091;47.446;19.148;2023-08-21T02:31:02;14.30;;;9.55;;
71303;SDS011;59091;47.446;19.148;2023-08-21T02:33:27;10.68;;;9.68;;
71303;SDS011;59091;47.446;19.148;2023-08-21T02:35:53;11.20;;;10.02;;
71303;SDS011;59091;47.446;19.148;2023-08-21T02:38:18;11.27;;;9.98;;
71303;SDS011;59091;47.446;19.148;2023-08-21T02:40:43;11.13;;;9.98;;
71303;SDS011;59091;47.446;19.148;2023-08-21T02:43:09;10.93;;;9.73;;
71303;SDS011;59091;47.446;19.148;2023-08-21T02:45:35;12.90;;;10.50;;
71303;SDS011;59091;47.446;19.148;2023-08-21T02:48:00;11.50;;;10.20;;
71303;SDS011;59091;47.446;19.148;2023-08-21T02:50:26;11.57;;;9.55;;
71303;SDS011;59091;47.446;19.148;2023-08-21T02:52:51;12.43;;;10.32;;
71303;SDS011;59091;47.446;19.148;2023-08-21T02:55:16;12.00;;;9.85;;
71303;SDS011;59091;47.446;19.148;2023-08-21T02:57:42;15.25;;;9.95;;
71303;SDS011;59091;47.446;19.148;2023-08-21T03:00:07;11.68;;;10.38;;
71303;SDS011;59091;47.446;19.148;2023-08-21T03:02:33;15.07;;;10.07;;
71303;SDS011;59091;47.446;19.148;2023-08-21T03:04:59;14.75;;;10.27;;
71303;SDS011;59091;47.446;19.148;2023-08-21T03:07:25;14.57;;;11.10;;
71303;SDS011;59091;47.446;19.148;2023-08-21T03:09:50;27.45;;;11.85;;
71303;SDS011;59091;47.446;19.148;2023-08-21T03:12:16;24.33;;;11.98;;
71303;SDS011;59091;47.446;19.148;2023-08-21T03:14:41;28.63;;;11.90;;
71303;SDS011;59091;47.446;19.148;2023-08-21T03:17:07;19.88;;;11.10;;
71303;SDS011;59091;47.446;19.148;2023-08-21T03:19:33;18.63;;;11.68;;
71303;SDS011;59091;47.446;19.148;2023-08-21T03:21:58;16.30;;;11.07;;
71303;SDS011;59091;47.446;19.148;2023-08-21T03:24:24;25.00;;;11.68;;
71303;SDS011;59091;47.446;19.148;2023-08-21T03:26:49;16.48;;;11.73;;
71303;SDS011;59091;47.446;19.148;2023-08-21T03:29:15;15.05;;;11.48;;
71303;SDS011;59091;47.446;19.148;2023-08-21T03:31:40;12.57;;;11.30;;
71303;SDS011;59091;47.446;19.148;2023-08-21T03:34:06;16.05;;;11.65;;
71303;SDS011;59091;47.446;19.148;2023-08-21T03:36:31;17.67;;;11.68;;
71303;SDS011;59091;47.446;19.148;2023-08-21T03:38:57;21.50;;;11.60;;
71303;SDS011;59091;47.446;19.148;2023-08-21T03:41:23;15.18;;;11.80;;
71303;SDS011;59091;47.446;19.148;2023-08-21T03:43:49;15.52;;;11.18;;
71303;SDS011;59091;47.446;19.148;2023-08-21T03:46:14;19.20;;;10.82;;
71303;SDS011;59091;47.446;19.148;2023-08-21T03:48:39;14.07;;;10.65;;
71303;SDS011;59091;47.446;19.148;2023-08-21T03:51:05;15.98;;;11.60;;
71303;SDS011;59091;47.446;19.148;2023-08-21T03:53:30;15.02;;;10.85;;
71303;SDS011;59091;47.446;19.148;2023-08-21T03:55:56;12.38;;;10.27;;
71303;SDS011;59091;47.446;19.148;2023-08-21T03:58:21;17.05;;;10.95;;
71303;SDS011;59091;47.446;19.148;2023-08-21T04:00:46;17.33;;;11.48;;
71303;SDS011;59091;47.446;19.148;2023-08-21T04:03:12;12.52;;;11.23;;
71303;SDS011;59091;47.446;19.148;2023-08-21T04:05:37;14.15;;;11.32;;
71303;SDS011;59091;47.446;19.148;2023-08-21T04:08:03;13.27;;;11.18;;
71303;SDS011;59091;47.446;19.148;2023-08-21T04:10:29;15.13;;;11.68;;
71303;SDS011;59091;47.446;19.148;2023-08-21T04:12:54;14.30;;;11.45;;
71303;SDS011;59091;47.446;19.148;2023-08-21T04:15:19;13.00;;;11.60;;
71303;SDS011;59091;47.446;19.148;2023-08-21T04:17:45;14.07;;;11.48;;
71303;SDS011;59091;47.446;19.148;2023-08-21T04:20:10;13.77;;;11.15;;
71303;SDS011;59091;47.446;19.148;2023-08-21T04:22:36;14.82;;;11.38;;
71303;SDS011;59091;47.446;19.148;2023-08-21T04:25:02;18.75;;;10.85;;
71303;SDS011;59091;47.446;19.148;2023-08-21T04:27:27;17.55;;;11.68;;
71303;SDS011;59091;47.446;19.148;2023-08-21T04:29:53;13.68;;;10.90;;
71303;SDS011;59091;47.446;19.148;2023-08-21T04:32:18;14.85;;;11.27;;
71303;SDS011;59091;47.446;19.148;2023-08-21T04:34:44;14.25;;;11.02;;
71303;SDS011;59091;47.446;19.148;2023-08-21T04:37:09;16.33;;;11.75;;
71303;SDS011;59091;47.446;19.148;2023-08-21T04:39:34;15.10;;;11.57;;
71303;SDS011;59091;47.446;19.148;2023-08-21T04:42:01;13.80;;;11.80;;
71303;SDS011;59091;47.446;19.148;2023-08-21T04:44:29;14.40;;;11.98;;
71303;SDS011;59091;47.446;19.148;2023-08-21T04:46:55;18.67;;;12.10;;
71303;SDS011;59091;47.446;19.148;2023-08-21T04:49:20;16.20;;;12.10;;
71303;SDS011;59091;47.446;19.148;2023-08-21T04:51:46;14.95;;;11.38;;
71303;SDS011;59091;47.446;19.148;2023-08-21T04:54:11;14.00;;;12.27;;
71303;SDS011;59091;47.446;19.148;2023-08-21T04:56:37;14.85;;;11.98;;
71303;SDS011;59091;47.446;19.148;2023-08-21T04:59:02;15.07;;;12.05;;
71303;SDS011;59091;47.446;19.148;2023-08-21T05:01:27;17.58;;;12.52;;
71303;SDS011;59091;47.446;19.148;2023-08-21T05:03:53;17.58;;;11.80;;
71303;SDS011;59091;47.446;19.148;2023-08-21T05:06:19;14.00;;;11.85;;
71303;SDS011;59091;47.446;19.148;2023-08-21T05:08:45;17.35;;;12.15;;
71303;SDS011;59091;47.446;19.148;2023-08-21T05:11:10;19.30;;;12.20;;
71303;SDS011;59091;47.446;19.148;2023-08-21T05:13:36;13.63;;;11.30;;
71303;SDS011;59091;47.446;19.148;2023-08-21T05:16:01;15.35;;;11.73;;
71303;SDS011;59091;47.446;19.148;2023-08-21T05:18:27;13.25;;;11.05;;
71303;SDS011;59091;47.446;19.148;2023-08-21T05:20:54;15.23;;;11.35;;
71303;SDS011;59091;47.446;19.148;2023-08-21T05:23:20;16.50;;;11.68;;
71303;SDS011;59091;47.446;19.148;2023-08-21T05:25:46;20.10;;;11.68;;
71303;SDS011;59091;47.446;19.148;2023-08-21T05:28:13;13.13;;;10.63;;
71303;SDS011;59091;47.446;19.148;2023-08-21T05:30:38;13.70;;;11.88;;
71303;SDS011;59091;47.446;19.148;2023-08-21T05:33:04;13.35;;;11.02;;
71303;SDS011;59091;47.446;19.148;2023-08-21T05:35:35;15.30;;;10.82;;
71303;SDS011;59091;47.446;19.148;2023-08-21T05:38:04;18.42;;;11.70;;
71303;SDS011;59091;47.446;19.148;2023-08-21T05:40:29;14.57;;;10.77;;
71303;SDS011;59091;47.446;19.148;2023-08-21T05:42:55;13.98;;;10.48;;
71303;SDS011;59091;47.446;19.148;2023-08-21T05:45:20;15.82;;;11.02;;
71303;SDS011;59091;47.446;19.148;2023-08-21T05:47:46;21.25;;;10.45;;
71303;SDS011;59091;47.446;19.148;2023-08-21T05:50:11;12.43;;;11.20;;
71303;SDS011;59091;47.446;19.148;2023-08-21T05:52:36;14.80;;;10.52;;
71303;SDS011;59091;47.446;19.148;2023-08-21T05:55:02;13.00;;;10.70;;
71303;SDS011;59091;47.446;19.148;2023-08-21T05:57:29;14.27;;;10.43;;
71303;SDS011;59091;47.446;19.148;2023-08-21T05:59:54;14.23;;;11.45;;
71303;SDS011;59091;47.446;19.148;2023-08-21T06:02:20;14.95;;;10.90;;
71303;SDS011;59091;47.446;19.148;2023-08-21T06:04:45;15.02;;;10.48;;
71303;SDS011;59091;47.446;19.148;2023-08-21T06:07:11;13.00;;;10.20;;
71303;SDS011;59091;47.446;19.148;2023-08-21T06:09:36;13.70;;;10.27;;
71303;SDS011;59091;47.446;19.148;2023-08-21T06:12:05;16.10;;;10.52;;
71303;SDS011;59091;47.446;19.148;2023-08-21T06:14:30;12.50;;;10.32;;
71303;SDS011;59091;47.446;19.148;2023-08-21T06:16:59;13.85;;;10.40;;
71303;SDS011;59091;47.446;19.148;2023-08-21T06:19:28;14.57;;;10.07;;
71303;SDS011;59091;47.446;19.148;2023-08-21T06:21:54;15.60;;;10.15;;
71303;SDS011;59091;47.446;19.148;2023-08-21T06:24:20;12.95;;;9.65;;
71303;SDS011;59091;47.446;19.148;2023-08-21T06:26:46;12.90;;;10.10;;
71303;SDS011;59091;47.446;19.148;2023-08-21T06:29:11;13.93;;;10.00;;
71303;SDS011;59091;47.446;19.148;2023-08-21T06:31:37;11.35;;;9.95;;
71303;SDS011;59091;47.446;19.148;2023-08-21T06:34:02;16.33;;;10.32;;
71303;SDS011;59091;47.446;19.148;2023-08-21T06:36:27;17.23;;;10.75;;
71303;SDS011;59091;47.446;19.148;2023-08-21T06:38:53;17.75;;;11.45;;
71303;SDS011;59091;47.446;19.148;2023-08-21T06:41:18;16.33;;;10.15;;
71303;SDS011;59091;47.446;19.148;2023-08-21T06:43:44;14.30;;;10.20;;
71303;SDS011;59091;47.446;19.148;2023-08-21T06:46:10;11.60;;;10.18;;
71303;SDS011;59091;47.446;19.148;2023-08-21T06:48:37;15.80;;;10.57;;
71303;SDS011;59091;47.446;19.148;2023-08-21T06:51:05;16.08;;;9.80;;
71303;SDS011;59091;47.446;19.148;2023-08-21T06:53:31;11.00;;;9.88;;
71303;SDS011;59091;47.446;19.148;2023-08-21T06:55:56;11.25;;;10.15;;
71303;SDS011;59091;47.446;19.148;2023-08-21T06:58:22;12.73;;;9.95;;
71303;SDS011;59091;47.446;19.148;2023-08-21T07:00:47;18.30;;;9.93;;
71303;SDS011;59091;47.446;19.148;2023-08-21T07:03:13;16.85;;;9.93;;
71303;SDS011;59091;47.446;19.148;2023-08-21T07:05:38;10.98;;;9.38;;
71303;SDS011;59091;47.446;19.148;2023-08-21T07:08:04;10.85;;;9.73;;
71303;SDS011;59091;47.446;19.148;2023-08-21T07:10:30;15.82;;;9.77;;
71303;SDS011;59091;47.446;19.148;2023-08-21T07:13:01;12.15;;;9.68;;
71303;SDS011;59091;47.446;19.148;2023-08-21T07:15:26;13.93;;;9.43;;
71303;SDS011;59091;47.446;19.148;2023-08-21T07:17:51;10.65;;;9.20;;
71303;SDS011;59091;47.446;19.148;2023-08-21T07:20:17;13.15;;;9.32;;
71303;SDS011;59091;47.446;19.148;2023-08-21T07:22:42;10.60;;;8.90;;
71303;SDS011;59091;47.446;19.148;2023-08-21T07:25:08;13.50;;;8.93;;
71303;SDS011;59091;47.446;19.148;2023-08-21T07:27:33;13.70;;;9.05;;
71303;SDS011;59091;47.446;19.148;2023-08-21T07:29:59;10.52;;;9.32;;
71303;SDS011;59091;47.446;19.148;2023-08-21T07:32:24;13.98;;;8.90;;
71303;SDS011;59091;47.446;19.148;2023-08-21T07:34:53;13.20;;;9.27;;
71303;SDS011;59091;47.446;19.148;2023-08-21T07:37:19;18.33;;;9.50;;
71303;SDS011;59091;47.446;19.148;2023-08-21T07:39:45;13.68;;;9.52;;
71303;SDS011;59091;47.446;19.148;2023-08-21T07:42:11;11.73;;;9.43;;
71303;SDS011;59091;47.446;19.148;2023-08-21T07:44:38;13.95;;;9.23;;
71303;SDS011;59091;47.446;19.148;2023-08-21T07:47:04;10.77;;;9.55;;
71303;SDS011;59091;47.446;19.148;2023-08-21T07:49:30;20.38;;;9.55;;
71303;SDS011;59091;47.446;19.148;2023-08-21T07:51:59;9.98;;;8.93;;
71303;SDS011;59091;47.446;19.148;2023-08-21T07:54:24;17.77;;;9.77;;
71303;SDS011;59091;47.446;19.148;2023-08-21T07:56:50;10.40;;;9.13;;
71303;SDS011;59091;47.446;19.148;2023-08-21T07:59:16;11.52;;;8.75;;
71303;SDS011;59091;47.446;19.148;2023-08-21T08:01:41;11.50;;;9.18;;
71303;SDS011;59091;47.446;19.148;2023-08-21T08:04:07;11.25;;;8.65;;
71303;SDS011;59091;47.446;19.148;2023-08-21T08:06:33;10.15;;;8.30;;
71303;SDS011;59091;47.446;19.148;2023-08-21T08:08:59;10.55;;;8.65;;
71303;SDS011;59091;47.446;19.148;2023-08-21T08:11:25;9.32;;;8.30;;
71303;SDS011;59091;47.446;19.148;2023-08-21T08:13:50;14.43;;;8.68;;
71303;SDS011;59091;47.446;19.148;2023-08-21T08:16:16;9.43;;;7.97;;
71303;SDS011;59091;47.446;19.148;2023-08-21T08:18:42;10.18;;;8.85;;
71303;SDS011;59091;47.446;19.148;2023-08-21T08:21:07;9.13;;;7.97;;
71303;SDS011;59091;47.446;19.148;2023-08-21T08:23:34;11.30;;;8.48;;
71303;SDS011;59091;47.446;19.148;2023-08-21T08:25:59;10.40;;;8.30;;
71303;SDS011;59091;47.446;19.148;2023-08-21T08:28:24;9.82;;;8.60;;
71303;SDS011;59091;47.446;19.148;2023-08-21T08:30:50;9.57;;;8.57;;
71303;SDS011;59091;47.446;19.148;2023-08-21T08:33:15;15.43;;;8.70;;
71303;SDS011;59091;47.446;19.148;2023-08-21T08:35:41;9.55;;;8.52;;
71303;SDS011;59091;47.446;19.148;2023-08-21T08:38:06;10.23;;;9.10;;
71303;SDS011;59091;47.446;19.148;2023-08-21T08:40:32;8.88;;;8.07;;
71303;SDS011;59091;47.446;19.148;2023-08-21T08:42:59;13.25;;;8.18;;
71303;SDS011;59091;47.446;19.148;2023-08-21T08:45:28;10.98;;;8.57;;
71303;SDS011;59091;47.446;19.148;2023-08-21T08:48:00;8.80;;;8.00;;
71303;SDS011;59091;47.446;19.148;2023-08-21T08:50:30;8.38;;;7.55;;
71303;SDS011;59091;47.446;19.148;2023-08-21T08:52:57;12.02;;;7.97;;
71303;SDS011;59091;47.446;19.148;2023-08-21T08:55:24;8.48;;;7.63;;
71303;SDS011;59091;47.446;19.148;2023-08-21T08:57:50;8.25;;;7.55;;
71303;SDS011;59091;47.446;19.148;2023-08-21T09:00:16;15.23;;;8.57;;
71303;SDS011;59091;47.446;19.148;2023-08-21T09:02:42;11.65;;;8.10;;
71303;SDS011;59091;47.446;19.148;2023-08-21T09:05:07;9.85;;;7.93;;
71303;SDS011;59091;47.446;19.148;2023-08-21T09:07:34;8.95;;;7.97;;
71303;SDS011;59091;47.446;19.148;2023-08-21T09:10:00;10.38;;;7.88;;
71303;SDS011;59091;47.446;19.148;2023-08-21T09:12:25;8.90;;;7.82;;
71303;SDS011;59091;47.446;19.148;2023-08-21T09:14:52;13.65;;;8.32;;
71303;SDS011;59091;47.446;19.148;2023-08-21T09:17:18;9.80;;;8.15;;
71303;SDS011;59091;47.446;19.148;2023-08-21T09:19:43;14.85;;;7.85;;
71303;SDS011;59091;47.446;19.148;2023-08-21T09:22:15;9.55;;;8.65;;
71303;SDS011;59091;47.446;19.148;2023-08-21T09:25:04;9.73;;;8.52;;
71303;SDS011;59091;47.446;19.148;2023-08-21T09:27:35;9.95;;;7.72;;
71303;SDS011;59091;47.446;19.148;2023-08-21T09:30:03;11.02;;;8.15;;
71303;SDS011;59091;47.446;19.148;2023-08-21T09:32:30;9.55;;;8.60;;
71303;SDS011;59091;47.446;19.148;2023-08-21T09:34:56;13.50;;;8.98;;
71303;SDS011;59091;47.446;19.148;2023-08-21T09:37:21;9.10;;;8.20;;
71303;SDS011;59091;47.446;19.148;2023-08-21T09:39:54;10.32;;;7.75;;
71303;SDS011;59091;47.446;19.148;2023-08-21T09:42:22;11.32;;;7.45;;
71303;SDS011;59091;47.446;19.148;2023-08-21T09:44:49;8.30;;;7.22;;
71303;SDS011;59091;47.446;19.148;2023-08-21T09:47:16;8.18;;;7.20;;
71303;SDS011;59091;47.446;19.148;2023-08-21T09:49:42;8.52;;;7.15;;
71303;SDS011;59091;47.446;19.148;2023-08-21T09:52:08;8.52;;;7.60;;
71303;SDS011;59091;47.446;19.148;2023-08-21T09:54:38;9.32;;;7.50;;
71303;SDS011;59091;47.446;19.148;2023-08-21T09:57:04;8.85;;;7.10;;
71303;SDS011;59091;47.446;19.148;2023-08-21T09:59:30;9.75;;;7.97;;
71303;SDS011;59091;47.446;19.148;2023-08-21T10:01:58;9.93;;;7.78;;
71303;SDS011;59091;47.446;19.148;2023-08-21T10:04:25;8.10;;;7.20;;
71303;SDS011;59091;47.446;19.148;2023-08-21T10:06:54;8.02;;;7.20;;
71303;SDS011;59091;47.446;19.148;2023-08-21T10:09:21;10.68;;;7.55;;
71303;SDS011;59091;47.446;19.148;2023-08-21T10:11:48;7.80;;;7.10;;
71303;SDS011;59091;47.446;19.148;2023-08-21T10:14:14;9.52;;;7.60;;
71303;SDS011;59091;47.446;19.148;2023-08-21T10:16:40;7.70;;;6.93;;
71303;SDS011;59091;47.446;19.148;2023-08-21T10:19:06;7.90;;;7.13;;
71303;SDS011;59091;47.446;19.148;2023-08-21T10:21:36;9.57;;;7.03;;
71303;SDS011;59091;47.446;19.148;2023-08-21T10:24:02;9.50;;;7.30;;
71303;SDS011;59091;47.446;19.148;2023-08-21T10:26:28;8.27;;;7.47;;
71303;SDS011;59091;47.446;19.148;2023-08-21T10:28:55;9.75;;;7.57;;
71303;SDS011;59091;47.446;19.148;2023-08-21T10:39:14;12.07;;;7.35;;
71303;SDS011;59091;47.446;19.148;2023-08-21T10:41:48;10.57;;;7.30;;
71303;SDS011;59091;47.446;19.148;2023-08-21T10:47:15;7.47;;;6.75;;
71303;SDS011;59091;47.446;19.148;2023-08-21T10:49:41;8.20;;;7.13;;
71303;SDS011;59091;47.446;19.148;2023-08-21T10:52:08;8.40;;;7.32;;
71303;SDS011;59091;47.446;19.148;2023-08-21T10:54:44;11.65;;;7.40;;
71303;SDS011;59091;47.446;19.148;2023-08-21T10:57:14;9.90;;;7.47;;
71303;SDS011;59091;47.446;19.148;2023-08-21T11:02:38;8.18;;;7.47;;
71303;SDS011;59091;47.446;19.148;2023-08-21T11:05:04;10.05;;;7.30;;
71303;SDS011;59091;47.446;19.148;2023-08-21T11:07:38;10.18;;;7.80;;
71303;SDS011;59091;47.446;19.148;2023-08-21T11:10:14;8.15;;;7.03;;
71303;SDS011;59091;47.446;19.148;2023-08-21T11:12:47;8.18;;;7.05;;
71303;SDS011;59091;47.446;19.148;2023-08-21T11:15:15;8.38;;;7.10;;
71303;SDS011;59091;47.446;19.148;2023-08-21T11:17:41;8.18;;;7.35;;
71303;SDS011;59091;47.446;19.148;2023-08-21T11:20:07;8.68;;;7.63;;
71303;SDS011;59091;47.446;19.148;2023-08-21T11:22:33;8.00;;;7.40;;
71303;SDS011;59091;47.446;19.148;2023-08-21T11:24:58;8.50;;;7.63;;
71303;SDS011;59091;47.446;19.148;2023-08-21T11:27:24;10.07;;;7.30;;
71303;SDS011;59091;47.446;19.148;2023-08-21T11:29:50;8.75;;;7.13;;
71303;SDS011;59091;47.446;19.148;2023-08-21T11:32:23;13.23;;;7.15;;
71303;SDS011;59091;47.446;19.148;2023-08-21T11:37:19;8.02;;;7.22;;
71303;SDS011;59091;47.446;19.148;2023-08-21T11:39:47;8.50;;;7.57;;
71303;SDS011;59091;47.446;19.148;2023-08-21T11:42:14;8.00;;;7.22;;
71303;SDS011;59091;47.446;19.148;2023-08-21T11:47:16;9.50;;;7.50;;
71303;SDS011;59091;47.446;19.148;2023-08-21T11:49:44;8.45;;;7.40;;
71303;SDS011;59091;47.446;19.148;2023-08-21T11:52:12;14.05;;;8.10;;
71303;SDS011;59091;47.446;19.148;2023-08-21T11:54:39;10.45;;;7.90;;
71303;SDS011;59091;47.446;19.148;2023-08-21T11:59:32;11.15;;;7.57;;
71303;SDS011;59091;47.446;19.148;2023-08-21T12:01:58;13.68;;;6.80;;
71303;SDS011;59091;47.446;19.148;2023-08-21T12:04:24;7.75;;;7.03;;
71303;SDS011;59091;47.446;19.148;2023-08-21T12:06:49;9.40;;;7.45;;
71303;SDS011;59091;47.446;19.148;2023-08-21T12:09:15;7.95;;;7.15;;
71303;SDS011;59091;47.446;19.148;2023-08-21T12:11:40;8.63;;;7.57;;
71303;SDS011;59091;47.446;19.148;2023-08-21T12:14:06;9.45;;;7.20;;
71303;SDS011;59091;47.446;19.148;2023-08-21T12:16:32;8.23;;;7.25;;
71303;SDS011;59091;47.446;19.148;2023-08-21T12:18:57;9.38;;;7.25;;
71303;SDS011;59091;47.446;19.148;2023-08-21T12:21:24;10.32;;;7.38;;
71303;SDS011;59091;47.446;19.148;2023-08-21T12:23:50;10.15;;;7.50;;
71303;SDS011;59091;47.446;19.148;2023-08-21T12:26:15;10.13;;;7.40;;
71303;SDS011;59091;47.446;19.148;2023-08-21T12:28:46;10.93;;;7.53;;
71303;SDS011;59091;47.446;19.148;2023-08-21T12:31:15;8.82;;;7.25;;
71303;SDS011;59091;47.446;19.148;2023-08-21T12:33:40;9.75;;;7.25;;
71303;SDS011;59091;47.446;19.148;2023-08-21T12:36:06;9.88;;;7.43;;
71303;SDS011;59091;47.446;19.148;2023-08-21T12:38:33;10.23;;;6.78;;
71303;SDS011;59091;47.446;19.148;2023-08-21T12:40:59;14.80;;;7.10;;
71303;SDS011;59091;47.446;19.148;2023-08-21T12:43:24;7.28;;;6.55;;
71303;SDS011;59091;47.446;19.148;2023-08-21T12:45:50;7.80;;;6.60;;
71303;SDS011;59091;47.446;19.148;2023-08-21T12:48:16;9.35;;;6.40;;
71303;SDS011;59091;47.446;19.148;2023-08-21T12:50:41;7.43;;;6.72;;
71303;SDS011;59091;47.446;19.148;2023-08-21T12:53:06;7.68;;;6.97;;
71303;SDS011;59091;47.446;19.148;2023-08-21T12:55:32;8.27;;;6.45;;
71303;SDS011;59091;47.446;19.148;2023-08-21T12:57:57;8.45;;;6.47;;
71303;SDS011;59091;47.446;19.148;2023-08-21T13:00:23;8.90;;;6.22;;
71303;SDS011;59091;47.446;19.148;2023-08-21T13:02:49;6.63;;;6.00;;
71303;SDS011;59091;47.446;19.148;2023-08-21T13:05:14;7.63;;;6.50;;
71303;SDS011;59091;47.446;19.148;2023-08-21T13:07:41;9.27;;;6.45;;
71303;SDS011;59091;47.446;19.148;2023-08-21T13:10:07;8.25;;;6.47;;
71303;SDS011;59091;47.446;19.148;2023-08-21T13:12:33;7.18;;;6.47;;
71303;SDS011;59091;47.446;19.148;2023-08-21T13:14:59;10.77;;;6.35;;
71303;SDS011;59091;47.446;19.148;2023-08-21T13:17:25;7.43;;;6.63;;
71303;SDS011;59091;47.446;19.148;2023-08-21T13:19:50;7.75;;;6.78;;
71303;SDS011;59091;47.446;19.148;2023-08-21T13:22:16;10.95;;;7.10;;
71303;SDS011;59091;47.446;19.148;2023-08-21T13:24:42;7.65;;;6.95;;
71303;SDS011;59091;47.446;19.148;2023-08-21T13:27:08;7.50;;;6.68;;
71303;SDS011;59091;47.446;19.148;2023-08-21T13:29:33;8.20;;;7.13;;
71303;SDS011;59091;47.446;19.148;2023-08-21T13:31:59;9.68;;;7.32;;
71303;SDS011;59091;47.446;19.148;2023-08-21T13:34:24;11.35;;;7.20;;
71303;SDS011;59091;47.446;19.148;2023-08-21T13:36:50;11.80;;;7.20;;
71303;SDS011;59091;47.446;19.148;2023-08-21T13:39:16;10.98;;;7.15;;
71303;SDS011;59091;47.446;19.148;2023-08-21T13:41:41;10.90;;;7.80;;
71303;SDS011;59091;47.446;19.148;2023-08-21T13:44:07;9.27;;;7.85;;
71303;SDS011;59091;47.446;19.148;2023-08-21T13:46:33;9.75;;;7.72;;
71303;SDS011;59091;47.446;19.148;2023-08-21T13:48:59;10.40;;;7.10;;
71303;SDS011;59091;47.446;19.148;2023-08-21T13:51:24;10.57;;;7.50;;
71303;SDS011;59091;47.446;19.148;2023-08-21T13:53:50;7.78;;;6.78;;
71303;SDS011;59091;47.446;19.148;2023-08-21T13:56:16;6.43;;;5.88;;
71303;SDS011;59091;47.446;19.148;2023-08-21T13:58:41;7.20;;;6.50;;
71303;SDS011;59091;47.446;19.148;2023-08-21T14:01:07;8.32;;;6.65;;
71303;SDS011;59091;47.446;19.148;2023-08-21T14:03:33;10.45;;;6.32;;
71303;SDS011;59091;47.446;19.148;2023-08-21T14:05:59;9.68;;;6.13;;
71303;SDS011;59091;47.446;19.148;2023-08-21T14:08:24;7.88;;;6.03;;
71303;SDS011;59091;47.446;19.148;2023-08-21T14:10:50;7.57;;;5.90;;
71303;SDS011;59091;47.446;19.148;2023-08-21T14:13:15;5.97;;;5.43;;
71303;SDS011;59091;47.446;19.148;2023-08-21T14:15:40;6.70;;;5.63;;
71303;SDS011;59091;47.446;19.148;2023-08-21T14:18:06;6.45;;;5.85;;
71303;SDS011;59091;47.446;19.148;2023-08-21T14:20:31;5.70;;;5.20;;
71303;SDS011;59091;47.446;19.148;2023-08-21T14:22:57;7.70;;;5.45;;
71303;SDS011;59091;47.446;19.148;2023-08-21T14:25:22;8.73;;;5.80;;
71303;SDS011;59091;47.446;19.148;2023-08-21T14:27:48;12.18;;;5.68;;
71303;SDS011;59091;47.446;19.148;2023-08-21T14:30:16;6.68;;;5.57;;
71303;SDS011;59091;47.446;19.148;2023-08-21T14:32:42;8.07;;;5.75;;
71303;SDS011;59091;47.446;19.148;2023-08-21T14:35:07;7.38;;;5.53;;
71303;SDS011;59091;47.446;19.148;2023-08-21T14:37:34;7.18;;;5.47;;
71303;SDS011;59091;47.446;19.148;2023-08-21T14:40:00;5.80;;;5.30;;
71303;SDS011;59091;47.446;19.148;2023-08-21T14:42:25;6.07;;;5.38;;